<?xml version="1.0" encoding="UTF-8" standalone="no" ?>
<gpx xmlns="http://www.topografix.com/GPX/1/1" xmlns:xsi="http://www.w3.org/2001/XMLSchema-instance" xsi:schemaLocation="http://www.topografix.com/GPX/1/1 http://www.topografix.com/GPX/1/1/gpx.xsd" version="1.1" creator="VisuGPX - https://www.visugpx.com">
  <metadata>
    <name>Suède</name>
  </metadata>
  <trk>
    <name><![CDATA[Tour d'Europe: étape 083]]></name>
    <trkseg>
      <trkpt lat="67.85218" lon="20.25872">
        <ele>542.098292</ele>
        <time>2020-09-19T09:40:24.218Z</time>
      </trkpt>
      <trkpt lat="67.85014" lon="20.25574">
        <ele>530.138279</ele>
        <time>2020-09-19T09:41:05.254Z</time>
      </trkpt>
      <trkpt lat="67.84895" lon="20.2602">
        <ele>525.897464</ele>
        <time>2020-09-19T09:41:49.215Z</time>
      </trkpt>
      <trkpt lat="67.84886" lon="20.26623">
        <ele>514.831829</ele>
        <time>2020-09-19T09:42:29.223Z</time>
      </trkpt>
      <trkpt lat="67.84854" lon="20.2722">
        <ele>514.028283</ele>
        <time>2020-09-19T09:43:09.191Z</time>
      </trkpt>
      <trkpt lat="67.84822" lon="20.2777">
        <ele>513.015087</ele>
        <time>2020-09-19T09:43:50.189Z</time>
      </trkpt>
      <trkpt lat="67.84808" lon="20.28435">
        <ele>508.719568</ele>
        <time>2020-09-19T09:44:30.245Z</time>
      </trkpt>
      <trkpt lat="67.84807" lon="20.29094">
        <ele>497.226212</ele>
        <time>2020-09-19T09:45:10.253Z</time>
      </trkpt>
      <trkpt lat="67.84813" lon="20.29801">
        <ele>485.988435</ele>
        <time>2020-09-19T09:45:52.207Z</time>
      </trkpt>
      <trkpt lat="67.84747" lon="20.3017">
        <ele>488.060422</ele>
        <time>2020-09-19T09:46:40.203Z</time>
      </trkpt>
      <trkpt lat="67.84711" lon="20.30545">
        <ele>483.143278</ele>
        <time>2020-09-19T09:47:47.205Z</time>
      </trkpt>
      <trkpt lat="67.84682" lon="20.31104">
        <ele>478.379134</ele>
        <time>2020-09-19T09:48:29.196Z</time>
      </trkpt>
      <trkpt lat="67.84583" lon="20.31486">
        <ele>467.808419</ele>
        <time>2020-09-19T09:49:07.195Z</time>
      </trkpt>
      <trkpt lat="67.84709" lon="20.31838">
        <ele>466.467003</ele>
        <time>2020-09-19T09:50:26.198Z</time>
      </trkpt>
      <trkpt lat="67.84875" lon="20.32029">
        <ele>473.358008</ele>
        <time>2020-09-19T09:51:49.194Z</time>
      </trkpt>
      <trkpt lat="67.84948" lon="20.32484">
        <ele>478.163492</ele>
        <time>2020-09-19T09:52:53.204Z</time>
      </trkpt>
      <trkpt lat="67.84902" lon="20.33009">
        <ele>476.891039</ele>
        <time>2020-09-19T09:53:40.202Z</time>
      </trkpt>
      <trkpt lat="67.84832" lon="20.3358">
        <ele>472.515286</ele>
        <time>2020-09-19T09:54:27.209Z</time>
      </trkpt>
      <trkpt lat="67.84753" lon="20.34236">
        <ele>464.322851</ele>
        <time>2020-09-19T09:55:07.191Z</time>
      </trkpt>
      <trkpt lat="67.84693" lon="20.34909">
        <ele>456.96105</ele>
        <time>2020-09-19T09:55:45.190Z</time>
      </trkpt>
      <trkpt lat="67.84579" lon="20.35202">
        <ele>449.63661</ele>
        <time>2020-09-19T09:56:34.221Z</time>
      </trkpt>
      <trkpt lat="67.84625" lon="20.35836">
        <ele>442.495984</ele>
        <time>2020-09-19T09:57:14.247Z</time>
      </trkpt>
      <trkpt lat="67.84657" lon="20.3658">
        <ele>439.731976</ele>
        <time>2020-09-19T09:57:54.254Z</time>
      </trkpt>
      <trkpt lat="67.84648" lon="20.37228">
        <ele>439.439622</ele>
        <time>2020-09-19T09:58:32.254Z</time>
      </trkpt>
      <trkpt lat="67.84631" lon="20.37874">
        <ele>437.186954</ele>
        <time>2020-09-19T09:59:12.251Z</time>
      </trkpt>
      <trkpt lat="67.84611" lon="20.38507">
        <ele>437.373374</ele>
        <time>2020-09-19T09:59:52.202Z</time>
      </trkpt>
      <trkpt lat="67.84545" lon="20.39143">
        <ele>438.014153</ele>
        <time>2020-09-19T10:00:30.217Z</time>
      </trkpt>
      <trkpt lat="67.84447" lon="20.39823">
        <ele>434.386064</ele>
        <time>2020-09-19T10:01:10.247Z</time>
      </trkpt>
      <trkpt lat="67.84351" lon="20.40618">
        <ele>427.494135</ele>
        <time>2020-09-19T10:01:50.211Z</time>
      </trkpt>
      <trkpt lat="67.84271" lon="20.41323">
        <ele>421.88849</ele>
        <time>2020-09-19T10:02:30.218Z</time>
      </trkpt>
      <trkpt lat="67.84201" lon="20.41962">
        <ele>419.066429</ele>
        <time>2020-09-19T10:03:08.187Z</time>
      </trkpt>
      <trkpt lat="67.84162" lon="20.42637">
        <ele>419.07811</ele>
        <time>2020-09-19T10:03:48.229Z</time>
      </trkpt>
      <trkpt lat="67.8417" lon="20.43291">
        <ele>413.784521</ele>
        <time>2020-09-19T10:04:28.235Z</time>
      </trkpt>
      <trkpt lat="67.84164" lon="20.4389">
        <ele>413.057519</ele>
        <time>2020-09-19T10:05:06.233Z</time>
      </trkpt>
      <trkpt lat="67.84108" lon="20.44529">
        <ele>414.181275</ele>
        <time>2020-09-19T10:05:46.251Z</time>
      </trkpt>
      <trkpt lat="67.84031" lon="20.45138">
        <ele>413.871573</ele>
        <time>2020-09-19T10:06:26.241Z</time>
      </trkpt>
      <trkpt lat="67.83974" lon="20.45716">
        <ele>416.242949</ele>
        <time>2020-09-19T10:07:15.266Z</time>
      </trkpt>
      <trkpt lat="67.83936" lon="20.46211">
        <ele>416.790947</ele>
        <time>2020-09-19T10:07:53.226Z</time>
      </trkpt>
      <trkpt lat="67.83912" lon="20.46825">
        <ele>414.20394</ele>
        <time>2020-09-19T10:08:33.203Z</time>
      </trkpt>
      <trkpt lat="67.839" lon="20.4744">
        <ele>411.257626</ele>
        <time>2020-09-19T10:09:13.210Z</time>
      </trkpt>
      <trkpt lat="67.83888" lon="20.47954">
        <ele>410.865417</ele>
        <time>2020-09-19T10:09:51.266Z</time>
      </trkpt>
      <trkpt lat="67.83863" lon="20.48492">
        <ele>413.416929</ele>
        <time>2020-09-19T10:10:31.295Z</time>
      </trkpt>
      <trkpt lat="67.83825" lon="20.49143">
        <ele>410.334498</ele>
        <time>2020-09-19T10:11:11.244Z</time>
      </trkpt>
      <trkpt lat="67.83761" lon="20.49763">
        <ele>406.804275</ele>
        <time>2020-09-19T10:11:51.232Z</time>
      </trkpt>
      <trkpt lat="67.83693" lon="20.50252">
        <ele>405.628145</ele>
        <time>2020-09-19T10:12:29.249Z</time>
      </trkpt>
      <trkpt lat="67.83607" lon="20.50746">
        <ele>407.278676</ele>
        <time>2020-09-19T10:13:09.224Z</time>
      </trkpt>
      <trkpt lat="67.83511" lon="20.51195">
        <ele>408.682076</ele>
        <time>2020-09-19T10:13:50.227Z</time>
      </trkpt>
      <trkpt lat="67.83404" lon="20.5163">
        <ele>408.382829</ele>
        <time>2020-09-19T10:14:30.210Z</time>
      </trkpt>
      <trkpt lat="67.83283" lon="20.52052">
        <ele>407.876199</ele>
        <time>2020-09-19T10:15:08.241Z</time>
      </trkpt>
      <trkpt lat="67.83147" lon="20.52456">
        <ele>411.333076</ele>
        <time>2020-09-19T10:15:49.274Z</time>
      </trkpt>
      <trkpt lat="67.82975" lon="20.52891">
        <ele>421.87956</ele>
        <time>2020-09-19T10:16:47.208Z</time>
      </trkpt>
      <trkpt lat="67.82819" lon="20.53242">
        <ele>429.987938</ele>
        <time>2020-09-19T10:17:44.249Z</time>
      </trkpt>
      <trkpt lat="67.82652" lon="20.53609">
        <ele>434.198908</ele>
        <time>2020-09-19T10:18:44.194Z</time>
      </trkpt>
      <trkpt lat="67.82484" lon="20.53985">
        <ele>434.352103</ele>
        <time>2020-09-19T10:19:44.251Z</time>
      </trkpt>
      <trkpt lat="67.82324" lon="20.54458">
        <ele>435.926659</ele>
        <time>2020-09-19T10:20:44.226Z</time>
      </trkpt>
      <trkpt lat="67.82199" lon="20.54971">
        <ele>435.168177</ele>
        <time>2020-09-19T10:21:41.193Z</time>
      </trkpt>
      <trkpt lat="67.82098" lon="20.55447">
        <ele>434.302776</ele>
        <time>2020-09-19T10:22:21.226Z</time>
      </trkpt>
      <trkpt lat="67.81983" lon="20.56004">
        <ele>431.849577</ele>
        <time>2020-09-19T10:23:01.207Z</time>
      </trkpt>
      <trkpt lat="67.81868" lon="20.56562">
        <ele>432.629332</ele>
        <time>2020-09-19T10:23:39.224Z</time>
      </trkpt>
      <trkpt lat="67.8176" lon="20.57091">
        <ele>440.060004</ele>
        <time>2020-09-19T10:24:29.226Z</time>
      </trkpt>
      <trkpt lat="67.81664" lon="20.5756">
        <ele>440.404572</ele>
        <time>2020-09-19T10:25:11.209Z</time>
      </trkpt>
      <trkpt lat="67.81552" lon="20.58086">
        <ele>436.915081</ele>
        <time>2020-09-19T10:25:51.222Z</time>
      </trkpt>
      <trkpt lat="67.81406" lon="20.58545">
        <ele>435.698538</ele>
        <time>2020-09-19T10:26:29.217Z</time>
      </trkpt>
      <trkpt lat="67.81227" lon="20.58863">
        <ele>441.851999</ele>
        <time>2020-09-19T10:27:16.196Z</time>
      </trkpt>
      <trkpt lat="67.81045" lon="20.59033">
        <ele>440.77945</ele>
        <time>2020-09-19T10:27:56.216Z</time>
      </trkpt>
      <trkpt lat="67.80836" lon="20.59082">
        <ele>445.141935</ele>
        <time>2020-09-19T10:28:50.227Z</time>
      </trkpt>
      <trkpt lat="67.80642" lon="20.59049">
        <ele>453.227857</ele>
        <time>2020-09-19T10:29:52.216Z</time>
      </trkpt>
      <trkpt lat="67.80417" lon="20.59046">
        <ele>451.707156</ele>
        <time>2020-09-19T10:30:43.237Z</time>
      </trkpt>
      <trkpt lat="67.80174" lon="20.59099">
        <ele>446.675966</ele>
        <time>2020-09-19T10:31:23.205Z</time>
      </trkpt>
      <trkpt lat="67.79966" lon="20.59187">
        <ele>448.188824</ele>
        <time>2020-09-19T10:32:01.203Z</time>
      </trkpt>
      <trkpt lat="67.79757" lon="20.59306">
        <ele>452.191669</ele>
        <time>2020-09-19T10:32:49.227Z</time>
      </trkpt>
      <trkpt lat="67.79522" lon="20.59445">
        <ele>454.586583</ele>
        <time>2020-09-19T10:33:49.267Z</time>
      </trkpt>
      <trkpt lat="67.79311" lon="20.5957">
        <ele>455.519302</ele>
        <time>2020-09-19T10:34:38.210Z</time>
      </trkpt>
      <trkpt lat="67.79107" lon="20.59687">
        <ele>457.622021</ele>
        <time>2020-09-19T10:35:23.254Z</time>
      </trkpt>
      <trkpt lat="67.78887" lon="20.5989">
        <ele>462.754854</ele>
        <time>2020-09-19T10:36:23.267Z</time>
      </trkpt>
      <trkpt lat="67.78689" lon="20.60193">
        <ele>467.363102</ele>
        <time>2020-09-19T10:37:23.197Z</time>
      </trkpt>
      <trkpt lat="67.78501" lon="20.60484">
        <ele>469.382446</ele>
        <time>2020-09-19T10:38:20.232Z</time>
      </trkpt>
      <trkpt lat="67.78302" lon="20.60796">
        <ele>468.976268</ele>
        <time>2020-09-19T10:39:20.250Z</time>
      </trkpt>
      <trkpt lat="67.78127" lon="20.61069">
        <ele>476.745718</ele>
        <time>2020-09-19T10:40:27.204Z</time>
      </trkpt>
      <trkpt lat="67.77962" lon="20.61328">
        <ele>483.278878</ele>
        <time>2020-09-19T10:41:28.225Z</time>
      </trkpt>
      <trkpt lat="67.77757" lon="20.61534">
        <ele>480.54994</ele>
        <time>2020-09-19T10:42:17.249Z</time>
      </trkpt>
      <trkpt lat="67.77484" lon="20.61602">
        <ele>473.531877</ele>
        <time>2020-09-19T10:42:57.224Z</time>
      </trkpt>
      <trkpt lat="67.77231" lon="20.61693">
        <ele>472.257064</ele>
        <time>2020-09-19T10:43:37.234Z</time>
      </trkpt>
      <trkpt lat="67.77024" lon="20.61878">
        <ele>472.533542</ele>
        <time>2020-09-19T10:44:15.214Z</time>
      </trkpt>
      <trkpt lat="67.76803" lon="20.62091">
        <ele>472.447509</ele>
        <time>2020-09-19T10:44:55.249Z</time>
      </trkpt>
      <trkpt lat="67.76602" lon="20.62314">
        <ele>475.283618</ele>
        <time>2020-09-19T10:45:35.237Z</time>
      </trkpt>
      <trkpt lat="67.7643" lon="20.62511">
        <ele>476.634128</ele>
        <time>2020-09-19T10:46:13.239Z</time>
      </trkpt>
      <trkpt lat="67.76246" lon="20.62718">
        <ele>477.542289</ele>
        <time>2020-09-19T10:46:53.228Z</time>
      </trkpt>
      <trkpt lat="67.76053" lon="20.62927">
        <ele>477.841411</ele>
        <time>2020-09-19T10:47:33.226Z</time>
      </trkpt>
      <trkpt lat="67.75833" lon="20.631">
        <ele>482.713967</ele>
        <time>2020-09-19T10:48:27.231Z</time>
      </trkpt>
      <trkpt lat="67.75637" lon="20.63267">
        <ele>483.601941</ele>
        <time>2020-09-19T10:49:10.230Z</time>
      </trkpt>
      <trkpt lat="67.754" lon="20.63557">
        <ele>478.960123</ele>
        <time>2020-09-19T10:49:50.259Z</time>
      </trkpt>
      <trkpt lat="67.75187" lon="20.63887">
        <ele>477.191583</ele>
        <time>2020-09-19T10:50:30.231Z</time>
      </trkpt>
      <trkpt lat="67.75" lon="20.64176">
        <ele>478.86797</ele>
        <time>2020-09-19T10:51:08.229Z</time>
      </trkpt>
      <trkpt lat="67.74801" lon="20.645">
        <ele>476.684312</ele>
        <time>2020-09-19T10:51:48.223Z</time>
      </trkpt>
      <trkpt lat="67.74632" lon="20.64919">
        <ele>475.367683</ele>
        <time>2020-09-19T10:52:28.257Z</time>
      </trkpt>
      <trkpt lat="67.74499" lon="20.65364">
        <ele>475.183269</ele>
        <time>2020-09-19T10:53:08.232Z</time>
      </trkpt>
      <trkpt lat="67.74376" lon="20.65784">
        <ele>476.527029</ele>
        <time>2020-09-19T10:53:46.232Z</time>
      </trkpt>
      <trkpt lat="67.74234" lon="20.66223">
        <ele>477.479283</ele>
        <time>2020-09-19T10:54:26.218Z</time>
      </trkpt>
      <trkpt lat="67.74048" lon="20.6664">
        <ele>476.980079</ele>
        <time>2020-09-19T10:55:06.229Z</time>
      </trkpt>
      <trkpt lat="67.73889" lon="20.66923">
        <ele>478.463558</ele>
        <time>2020-09-19T10:55:44.250Z</time>
      </trkpt>
      <trkpt lat="67.73712" lon="20.67238">
        <ele>479.621011</ele>
        <time>2020-09-19T10:56:25.222Z</time>
      </trkpt>
      <trkpt lat="67.73504" lon="20.67645">
        <ele>477.267525</ele>
        <time>2020-09-19T10:57:05.220Z</time>
      </trkpt>
      <trkpt lat="67.73301" lon="20.68061">
        <ele>472.918781</ele>
        <time>2020-09-19T10:57:45.275Z</time>
      </trkpt>
      <trkpt lat="67.73139" lon="20.68473">
        <ele>471.416455</ele>
        <time>2020-09-19T10:58:23.210Z</time>
      </trkpt>
      <trkpt lat="67.72989" lon="20.69032">
        <ele>467.907469</ele>
        <time>2020-09-19T10:59:03.246Z</time>
      </trkpt>
      <trkpt lat="67.72864" lon="20.69687">
        <ele>461.639308</ele>
        <time>2020-09-19T10:59:43.231Z</time>
      </trkpt>
      <trkpt lat="67.72714" lon="20.70397">
        <ele>451.927991</ele>
        <time>2020-09-19T11:00:21.241Z</time>
      </trkpt>
      <trkpt lat="67.72526" lon="20.70984">
        <ele>448.045174</ele>
        <time>2020-09-19T11:01:01.233Z</time>
      </trkpt>
      <trkpt lat="67.72327" lon="20.71427">
        <ele>446.046777</ele>
        <time>2020-09-19T11:01:41.261Z</time>
      </trkpt>
      <trkpt lat="67.72135" lon="20.71837">
        <ele>447.390027</ele>
        <time>2020-09-19T11:02:21.285Z</time>
      </trkpt>
      <trkpt lat="67.71974" lon="20.72181">
        <ele>450.111564</ele>
        <time>2020-09-19T11:02:59.225Z</time>
      </trkpt>
      <trkpt lat="67.71805" lon="20.7255">
        <ele>451.232082</ele>
        <time>2020-09-19T11:03:39.223Z</time>
      </trkpt>
      <trkpt lat="67.71627" lon="20.72928">
        <ele>449.811708</ele>
        <time>2020-09-19T11:04:19.238Z</time>
      </trkpt>
      <trkpt lat="67.71446" lon="20.73322">
        <ele>448.090596</ele>
        <time>2020-09-19T11:04:57.230Z</time>
      </trkpt>
      <trkpt lat="67.71233" lon="20.73785">
        <ele>441.884577</ele>
        <time>2020-09-19T11:05:37.224Z</time>
      </trkpt>
      <trkpt lat="67.70995" lon="20.74297">
        <ele>434.027483</ele>
        <time>2020-09-19T11:06:17.248Z</time>
      </trkpt>
      <trkpt lat="67.70778" lon="20.74787">
        <ele>429.395226</ele>
        <time>2020-09-19T11:06:57.221Z</time>
      </trkpt>
      <trkpt lat="67.70601" lon="20.75243">
        <ele>428.854047</ele>
        <time>2020-09-19T11:07:35.265Z</time>
      </trkpt>
      <trkpt lat="67.70429" lon="20.75744">
        <ele>428.930183</ele>
        <time>2020-09-19T11:08:15.242Z</time>
      </trkpt>
      <trkpt lat="67.70274" lon="20.76258">
        <ele>428.070832</ele>
        <time>2020-09-19T11:08:55.266Z</time>
      </trkpt>
      <trkpt lat="67.70146" lon="20.76737">
        <ele>428.280086</ele>
        <time>2020-09-19T11:09:33.216Z</time>
      </trkpt>
      <trkpt lat="67.70018" lon="20.77278">
        <ele>425.646323</ele>
        <time>2020-09-19T11:10:13.234Z</time>
      </trkpt>
      <trkpt lat="67.69893" lon="20.77888">
        <ele>423.238429</ele>
        <time>2020-09-19T11:10:53.226Z</time>
      </trkpt>
      <trkpt lat="67.69794" lon="20.78448">
        <ele>421.948165</ele>
        <time>2020-09-19T11:11:33.277Z</time>
      </trkpt>
      <trkpt lat="67.69715" lon="20.7897">
        <ele>420.980278</ele>
        <time>2020-09-19T11:12:11.252Z</time>
      </trkpt>
      <trkpt lat="67.69635" lon="20.79535">
        <ele>419.985033</ele>
        <time>2020-09-19T11:12:51.230Z</time>
      </trkpt>
      <trkpt lat="67.69549" lon="20.80146">
        <ele>418.038544</ele>
        <time>2020-09-19T11:13:31.231Z</time>
      </trkpt>
      <trkpt lat="67.69459" lon="20.80779">
        <ele>414.418655</ele>
        <time>2020-09-19T11:14:11.255Z</time>
      </trkpt>
      <trkpt lat="67.69384" lon="20.81314">
        <ele>412.510946</ele>
        <time>2020-09-19T11:14:54.235Z</time>
      </trkpt>
      <trkpt lat="67.69283" lon="20.81994">
        <ele>408.0879</ele>
        <time>2020-09-19T11:15:34.223Z</time>
      </trkpt>
      <trkpt lat="67.69181" lon="20.82636">
        <ele>405.824799</ele>
        <time>2020-09-19T11:16:14.219Z</time>
      </trkpt>
      <trkpt lat="67.69072" lon="20.83259">
        <ele>401.811408</ele>
        <time>2020-09-19T11:16:52.234Z</time>
      </trkpt>
      <trkpt lat="67.6895" lon="20.83908">
        <ele>397.882013</ele>
        <time>2020-09-19T11:17:32.245Z</time>
      </trkpt>
      <trkpt lat="67.6882" lon="20.84551">
        <ele>395.847187</ele>
        <time>2020-09-19T11:18:12.248Z</time>
      </trkpt>
      <trkpt lat="67.68673" lon="20.85222">
        <ele>390.268847</ele>
        <time>2020-09-19T11:18:52.225Z</time>
      </trkpt>
      <trkpt lat="67.6852" lon="20.85874">
        <ele>386.116707</ele>
        <time>2020-09-19T11:19:30.213Z</time>
      </trkpt>
      <trkpt lat="67.68386" lon="20.86393">
        <ele>386.20468</ele>
        <time>2020-09-19T11:20:10.216Z</time>
      </trkpt>
      <trkpt lat="67.68271" lon="20.86837">
        <ele>387.014573</ele>
        <time>2020-09-19T11:20:50.235Z</time>
      </trkpt>
      <trkpt lat="67.68148" lon="20.87312">
        <ele>384.868172</ele>
        <time>2020-09-19T11:21:28.228Z</time>
      </trkpt>
      <trkpt lat="67.67991" lon="20.87915">
        <ele>379.616163</ele>
        <time>2020-09-19T11:22:08.250Z</time>
      </trkpt>
      <trkpt lat="67.6783" lon="20.8853">
        <ele>377.356145</ele>
        <time>2020-09-19T11:22:48.249Z</time>
      </trkpt>
      <trkpt lat="67.67699" lon="20.89069">
        <ele>377.596572</ele>
        <time>2020-09-19T11:23:28.240Z</time>
      </trkpt>
      <trkpt lat="67.67589" lon="20.89597">
        <ele>376.500434</ele>
        <time>2020-09-19T11:24:06.264Z</time>
      </trkpt>
      <trkpt lat="67.67479" lon="20.90214">
        <ele>374.840016</ele>
        <time>2020-09-19T11:24:46.261Z</time>
      </trkpt>
      <trkpt lat="67.67374" lon="20.90803">
        <ele>374.303643</ele>
        <time>2020-09-19T11:25:26.229Z</time>
      </trkpt>
      <trkpt lat="67.67272" lon="20.91431">
        <ele>373.105455</ele>
        <time>2020-09-19T11:26:04.254Z</time>
      </trkpt>
      <trkpt lat="67.67222" lon="20.91995">
        <ele>372.744713</ele>
        <time>2020-09-19T11:26:44.250Z</time>
      </trkpt>
      <trkpt lat="67.67219" lon="20.92684">
        <ele>369.388551</ele>
        <time>2020-09-19T11:27:24.265Z</time>
      </trkpt>
      <trkpt lat="67.67218" lon="20.93352">
        <ele>367.962408</ele>
        <time>2020-09-19T11:28:04.235Z</time>
      </trkpt>
      <trkpt lat="67.67183" lon="20.94005">
        <ele>363.938908</ele>
        <time>2020-09-19T11:28:42.247Z</time>
      </trkpt>
      <trkpt lat="67.67115" lon="20.94602">
        <ele>360.580719</ele>
        <time>2020-09-19T11:39:37.232Z</time>
      </trkpt>
      <trkpt lat="67.66988" lon="20.95262">
        <ele>357.191392</ele>
        <time>2020-09-19T11:40:17.240Z</time>
      </trkpt>
      <trkpt lat="67.6689" lon="20.95742">
        <ele>360.980669</ele>
        <time>2020-09-19T11:40:55.240Z</time>
      </trkpt>
      <trkpt lat="67.668" lon="20.9619">
        <ele>365.649765</ele>
        <time>2020-09-19T11:41:36.286Z</time>
      </trkpt>
      <trkpt lat="67.66712" lon="20.96724">
        <ele>364.15508</ele>
        <time>2020-09-19T11:42:16.229Z</time>
      </trkpt>
      <trkpt lat="67.66664" lon="20.97399">
        <ele>356.688495</ele>
        <time>2020-09-19T11:42:56.217Z</time>
      </trkpt>
      <trkpt lat="67.66631" lon="20.98094">
        <ele>350.490217</ele>
        <time>2020-09-19T11:43:32.234Z</time>
      </trkpt>
      <trkpt lat="67.66539" lon="20.98647">
        <ele>353.862851</ele>
        <time>2020-09-19T11:44:24.280Z</time>
      </trkpt>
      <trkpt lat="67.66395" lon="20.99119">
        <ele>352.317701</ele>
        <time>2020-09-19T11:45:04.258Z</time>
      </trkpt>
      <trkpt lat="67.66179" lon="20.99578">
        <ele>348.808332</ele>
        <time>2020-09-19T11:45:42.282Z</time>
      </trkpt>
      <trkpt lat="67.65996" lon="21.00043">
        <ele>347.786834</ele>
        <time>2020-09-19T11:46:22.266Z</time>
      </trkpt>
      <trkpt lat="67.65858" lon="21.00535">
        <ele>348.454169</ele>
        <time>2020-09-19T11:47:02.263Z</time>
      </trkpt>
      <trkpt lat="67.65705" lon="21.00901">
        <ele>348.642137</ele>
        <time>2020-09-19T11:47:42.238Z</time>
      </trkpt>
      <trkpt lat="67.65543" lon="21.01165">
        <ele>348.857755</ele>
        <time>2020-09-19T11:48:20.231Z</time>
      </trkpt>
      <trkpt lat="67.65362" lon="21.01443">
        <ele>350.17368</ele>
        <time>2020-09-19T11:49:00.222Z</time>
      </trkpt>
      <trkpt lat="67.6518" lon="21.0172">
        <ele>352.194554</ele>
        <time>2020-09-19T11:49:40.276Z</time>
      </trkpt>
      <trkpt lat="67.65" lon="21.02012">
        <ele>353.725742</ele>
        <time>2020-09-19T11:50:25.251Z</time>
      </trkpt>
      <trkpt lat="67.64832" lon="21.0241">
        <ele>356.777932</ele>
        <time>2020-09-19T11:51:23.326Z</time>
      </trkpt>
      <trkpt lat="67.64675" lon="21.02996">
        <ele>350.265835</ele>
        <time>2020-09-19T11:52:03.225Z</time>
      </trkpt>
      <trkpt lat="67.64584" lon="21.03596">
        <ele>348.408182</ele>
        <time>2020-09-19T11:52:43.230Z</time>
      </trkpt>
      <trkpt lat="67.64518" lon="21.04069">
        <ele>350.568265</ele>
        <time>2020-09-19T11:53:21.231Z</time>
      </trkpt>
      <trkpt lat="67.64458" lon="21.0458">
        <ele>351.597426</ele>
        <time>2020-09-19T11:54:04.235Z</time>
      </trkpt>
      <trkpt lat="67.64375" lon="21.05073">
        <ele>351.740311</ele>
        <time>2020-09-19T11:54:44.241Z</time>
      </trkpt>
      <trkpt lat="67.64262" lon="21.05502">
        <ele>353.197417</ele>
        <time>2020-09-19T11:55:22.223Z</time>
      </trkpt>
      <trkpt lat="67.6412" lon="21.05875">
        <ele>352.464183</ele>
        <time>2020-09-19T11:56:02.217Z</time>
      </trkpt>
      <trkpt lat="67.63957" lon="21.06167">
        <ele>352.997155</ele>
        <time>2020-09-19T11:56:42.266Z</time>
      </trkpt>
      <trkpt lat="67.63738" lon="21.06445">
        <ele>359.940831</ele>
        <time>2020-09-19T11:57:42.229Z</time>
      </trkpt>
      <trkpt lat="67.6356" lon="21.06665">
        <ele>365.800972</ele>
        <time>2020-09-19T11:58:39.257Z</time>
      </trkpt>
      <trkpt lat="67.6338" lon="21.06992">
        <ele>365.891242</ele>
        <time>2020-09-19T11:59:30.275Z</time>
      </trkpt>
      <trkpt lat="67.63233" lon="21.07367">
        <ele>367.345997</ele>
        <time>2020-09-19T12:00:11.233Z</time>
      </trkpt>
      <trkpt lat="67.63106" lon="21.07724">
        <ele>370.048003</ele>
        <time>2020-09-19T12:00:51.230Z</time>
      </trkpt>
      <trkpt lat="67.62941" lon="21.0818">
        <ele>366.369909</ele>
        <time>2020-09-19T12:01:31.247Z</time>
      </trkpt>
      <trkpt lat="67.62761" lon="21.08507">
        <ele>366.99795</ele>
        <time>2020-09-19T12:02:11.222Z</time>
      </trkpt>
      <trkpt lat="67.62567" lon="21.08725">
        <ele>376.337871</ele>
        <time>2020-09-19T12:03:08.253Z</time>
      </trkpt>
      <trkpt lat="67.62375" lon="21.08906">
        <ele>383.348401</ele>
        <time>2020-09-19T12:04:20.268Z</time>
      </trkpt>
      <trkpt lat="67.62172" lon="21.09106">
        <ele>392.6228</ele>
        <time>2020-09-19T12:05:38.237Z</time>
      </trkpt>
      <trkpt lat="67.61985" lon="21.09287">
        <ele>407.214261</ele>
        <time>2020-09-19T12:07:22.251Z</time>
      </trkpt>
      <trkpt lat="67.61805" lon="21.09461">
        <ele>419.82807</ele>
        <time>2020-09-19T12:09:03.237Z</time>
      </trkpt>
      <trkpt lat="67.61622" lon="21.09684">
        <ele>421.912102</ele>
        <time>2020-09-19T12:10:28.250Z</time>
      </trkpt>
      <trkpt lat="67.61456" lon="21.09975">
        <ele>423.598696</ele>
        <time>2020-09-19T12:11:48.246Z</time>
      </trkpt>
      <trkpt lat="67.61301" lon="21.10323">
        <ele>426.475631</ele>
        <time>2020-09-19T12:13:06.223Z</time>
      </trkpt>
      <trkpt lat="67.61151" lon="21.10684">
        <ele>427.581625</ele>
        <time>2020-09-19T12:14:03.298Z</time>
      </trkpt>
      <trkpt lat="67.60989" lon="21.11065">
        <ele>430.577523</ele>
        <time>2020-09-19T12:14:53.253Z</time>
      </trkpt>
      <trkpt lat="67.6079" lon="21.11421">
        <ele>435.850428</ele>
        <time>2020-09-19T12:15:53.257Z</time>
      </trkpt>
      <trkpt lat="67.60591" lon="21.11734">
        <ele>437.890901</ele>
        <time>2020-09-19T12:16:50.268Z</time>
      </trkpt>
      <trkpt lat="67.60366" lon="21.11979">
        <ele>437.387302</ele>
        <time>2020-09-19T12:17:48.268Z</time>
      </trkpt>
      <trkpt lat="67.60129" lon="21.12112">
        <ele>438.812836</ele>
        <time>2020-09-19T12:18:44.243Z</time>
      </trkpt>
      <trkpt lat="67.59898" lon="21.12155">
        <ele>439.279937</ele>
        <time>2020-09-19T12:19:42.258Z</time>
      </trkpt>
      <trkpt lat="67.59686" lon="21.122">
        <ele>440.717917</ele>
        <time>2020-09-19T12:20:34.265Z</time>
      </trkpt>
      <trkpt lat="67.59441" lon="21.12336">
        <ele>436.6272</ele>
        <time>2020-09-19T12:21:14.255Z</time>
      </trkpt>
      <trkpt lat="67.59217" lon="21.12475">
        <ele>435.559045</ele>
        <time>2020-09-19T12:21:54.268Z</time>
      </trkpt>
      <trkpt lat="67.58978" lon="21.1262">
        <ele>436.827077</ele>
        <time>2020-09-19T12:22:32.254Z</time>
      </trkpt>
      <trkpt lat="67.5874" lon="21.12767">
        <ele>435.070582</ele>
        <time>2020-09-19T12:23:12.262Z</time>
      </trkpt>
      <trkpt lat="67.5852" lon="21.12904">
        <ele>432.861479</ele>
        <time>2020-09-19T12:23:52.285Z</time>
      </trkpt>
      <trkpt lat="67.58277" lon="21.1307">
        <ele>432.78728</ele>
        <time>2020-09-19T12:24:32.270Z</time>
      </trkpt>
      <trkpt lat="67.58099" lon="21.13274">
        <ele>437.20094</ele>
        <time>2020-09-19T12:25:10.268Z</time>
      </trkpt>
      <trkpt lat="67.5792" lon="21.13498">
        <ele>440.292286</ele>
        <time>2020-09-19T12:25:52.274Z</time>
      </trkpt>
      <trkpt lat="67.57716" lon="21.13745">
        <ele>438.838537</ele>
        <time>2020-09-19T12:26:32.236Z</time>
      </trkpt>
      <trkpt lat="67.5753" lon="21.13914">
        <ele>440.772296</ele>
        <time>2020-09-19T12:27:12.251Z</time>
      </trkpt>
      <trkpt lat="67.57348" lon="21.14037">
        <ele>442.399959</ele>
        <time>2020-09-19T12:27:53.227Z</time>
      </trkpt>
      <trkpt lat="67.57156" lon="21.14161">
        <ele>441.826279</ele>
        <time>2020-09-19T12:28:36.241Z</time>
      </trkpt>
      <trkpt lat="67.56972" lon="21.14283">
        <ele>441.432802</ele>
        <time>2020-09-19T12:29:16.270Z</time>
      </trkpt>
      <trkpt lat="67.56796" lon="21.14402">
        <ele>442.302657</ele>
        <time>2020-09-19T12:29:55.230Z</time>
      </trkpt>
      <trkpt lat="67.56605" lon="21.14526">
        <ele>444.483038</ele>
        <time>2020-09-19T12:30:37.251Z</time>
      </trkpt>
      <trkpt lat="67.56425" lon="21.14646">
        <ele>448.345686</ele>
        <time>2020-09-19T12:31:17.253Z</time>
      </trkpt>
      <trkpt lat="67.56237" lon="21.14765">
        <ele>448.534784</ele>
        <time>2020-09-19T12:31:58.276Z</time>
      </trkpt>
      <trkpt lat="67.56053" lon="21.14828">
        <ele>447.082429</ele>
        <time>2020-09-19T12:32:37.242Z</time>
      </trkpt>
      <trkpt lat="67.55818" lon="21.14816">
        <ele>445.441721</ele>
        <time>2020-09-19T12:33:17.297Z</time>
      </trkpt>
      <trkpt lat="67.55552" lon="21.14715">
        <ele>441.926042</ele>
        <time>2020-09-19T12:33:57.245Z</time>
      </trkpt>
      <trkpt lat="67.55293" lon="21.14611">
        <ele>440.975821</ele>
        <time>2020-09-19T12:34:35.254Z</time>
      </trkpt>
      <trkpt lat="67.5504" lon="21.14511">
        <ele>438.500088</ele>
        <time>2020-09-19T12:35:15.222Z</time>
      </trkpt>
      <trkpt lat="67.54791" lon="21.14413">
        <ele>433.966429</ele>
        <time>2020-09-19T12:35:55.262Z</time>
      </trkpt>
      <trkpt lat="67.54537" lon="21.14364">
        <ele>434.736481</ele>
        <time>2020-09-19T12:36:35.242Z</time>
      </trkpt>
      <trkpt lat="67.54247" lon="21.14547">
        <ele>428.049785</ele>
        <time>2020-09-19T12:37:13.249Z</time>
      </trkpt>
      <trkpt lat="67.54007" lon="21.14844">
        <ele>424.218548</ele>
        <time>2020-09-19T12:37:53.285Z</time>
      </trkpt>
      <trkpt lat="67.5376" lon="21.15119">
        <ele>417.613858</ele>
        <time>2020-09-19T12:38:24.263Z</time>
      </trkpt>
      <trkpt lat="67.53569" lon="21.15199">
        <ele>408.507271</ele>
        <time>2020-09-19T12:38:43.250Z</time>
      </trkpt>
      <trkpt lat="67.53357" lon="21.1517">
        <ele>400.275461</ele>
        <time>2020-09-19T12:39:05.248Z</time>
      </trkpt>
      <trkpt lat="67.53096" lon="21.15082">
        <ele>397.186432</ele>
        <time>2020-09-19T12:39:45.290Z</time>
      </trkpt>
      <trkpt lat="67.52878" lon="21.15004">
        <ele>398.224929</ele>
        <time>2020-09-19T12:40:25.230Z</time>
      </trkpt>
      <trkpt lat="67.52687" lon="21.14941">
        <ele>396.122991</ele>
        <time>2020-09-19T12:41:03.221Z</time>
      </trkpt>
      <trkpt lat="67.52488" lon="21.14873">
        <ele>398.819164</ele>
        <time>2020-09-19T12:41:44.241Z</time>
      </trkpt>
      <trkpt lat="67.52297" lon="21.14754">
        <ele>401.689355</ele>
        <time>2020-09-19T12:42:25.231Z</time>
      </trkpt>
      <trkpt lat="67.52122" lon="21.14611">
        <ele>402.604407</ele>
        <time>2020-09-19T12:43:03.248Z</time>
      </trkpt>
      <trkpt lat="67.51929" lon="21.14459">
        <ele>403.495116</ele>
        <time>2020-09-19T12:43:43.243Z</time>
      </trkpt>
      <trkpt lat="67.51722" lon="21.14373">
        <ele>401.869437</ele>
        <time>2020-09-19T12:44:23.262Z</time>
      </trkpt>
      <trkpt lat="67.5152" lon="21.14327">
        <ele>401.380412</ele>
        <time>2020-09-19T12:45:03.251Z</time>
      </trkpt>
      <trkpt lat="67.51332" lon="21.14283">
        <ele>401.418882</ele>
        <time>2020-09-19T12:45:41.269Z</time>
      </trkpt>
      <trkpt lat="67.51133" lon="21.14226">
        <ele>401.794825</ele>
        <time>2020-09-19T12:46:25.236Z</time>
      </trkpt>
      <trkpt lat="67.50936" lon="21.14123">
        <ele>403.771172</ele>
        <time>2020-09-19T12:47:05.246Z</time>
      </trkpt>
      <trkpt lat="67.50694" lon="21.13925">
        <ele>399.995014</ele>
        <time>2020-09-19T12:47:43.257Z</time>
      </trkpt>
      <trkpt lat="67.50509" lon="21.13722">
        <ele>401.247261</ele>
        <time>2020-09-19T12:48:24.248Z</time>
      </trkpt>
      <trkpt lat="67.50332" lon="21.13508">
        <ele>404.765927</ele>
        <time>2020-09-19T12:49:05.248Z</time>
      </trkpt>
      <trkpt lat="67.50151" lon="21.1329">
        <ele>407.046569</ele>
        <time>2020-09-19T12:49:46.227Z</time>
      </trkpt>
      <trkpt lat="67.49956" lon="21.13055">
        <ele>404.999649</ele>
        <time>2020-09-19T12:50:24.263Z</time>
      </trkpt>
      <trkpt lat="67.49739" lon="21.12795">
        <ele>402.712569</ele>
        <time>2020-09-19T12:51:04.289Z</time>
      </trkpt>
      <trkpt lat="67.49477" lon="21.1248">
        <ele>396.574581</ele>
        <time>2020-09-19T12:51:44.281Z</time>
      </trkpt>
      <trkpt lat="67.49273" lon="21.12214">
        <ele>392.740609</ele>
        <time>2020-09-19T12:52:22.267Z</time>
      </trkpt>
      <trkpt lat="67.49072" lon="21.11997">
        <ele>393.756534</ele>
        <time>2020-09-19T12:53:16.242Z</time>
      </trkpt>
    </trkseg>
  </trk>
</gpx>